createdAt,value
2022-10-26T00:01:26.003Z,100.00
2022-10-26T00:03:59.293Z,100.00
2022-10-26T00:06:33.473Z,100.00
2022-10-26T00:09:05.926Z,100.00
2022-10-26T00:11:38.292Z,100.00
2022-10-26T00:14:11.726Z,100.00
2022-10-26T00:16:44.472Z,100.00
2022-10-26T00:19:17.675Z,100.00
2022-10-26T00:21:50.156Z,100.00
2022-10-26T00:24:23.158Z,100.00
2022-10-26T00:26:55.608Z,100.00
2022-10-26T00:29:28.262Z,100.00
2022-10-26T00:32:01.236Z,100.00
2022-10-26T00:34:35.053Z,100.00
2022-10-26T00:37:07.530Z,100.00
2022-10-26T00:39:40.578Z,100.00
2022-10-26T00:42:16.674Z,100.00
2022-10-26T00:45:02.196Z,100.00
2022-10-26T00:47:42.308Z,100.00
2022-10-26T00:50:31.719Z,100.00
2022-10-26T00:53:05.460Z,100.00
2022-10-26T00:55:41.780Z,100.00
2022-10-26T00:58:14.148Z,100.00
2022-10-26T01:00:46.554Z,100.00
2022-10-26T01:03:19.204Z,100.00
2022-10-26T01:05:52.444Z,100.00
2022-10-26T01:08:25.166Z,100.00
2022-10-26T01:10:58.653Z,100.00
2022-10-26T01:13:32.182Z,100.00
2022-10-26T01:16:28.249Z,100.00
2022-10-26T01:19:47.937Z,100.00
2022-10-26T01:22:30.041Z,100.00
2022-10-26T01:25:19.998Z,100.00
2022-10-26T01:27:54.114Z,100.00
2022-10-26T01:30:42.427Z,100.00
2022-10-26T01:33:37.601Z,100.00
2022-10-26T01:36:33.781Z,100.00
2022-10-26T01:39:35.086Z,100.00
2022-10-26T01:42:07.635Z,100.00
2022-10-26T01:44:44.291Z,100.00
2022-10-26T01:47:17.684Z,100.00
2022-10-26T01:49:54.550Z,100.00
2022-10-26T01:52:27.655Z,100.00
2022-10-26T01:55:10.139Z,100.00
2022-10-26T01:57:42.618Z,100.00
2022-10-26T02:00:15.524Z,100.00
2022-10-26T02:03:13.555Z,100.00
2022-10-26T02:06:13.684Z,100.00
2022-10-26T02:09:14.187Z,100.00
2022-10-26T02:11:50.723Z,100.00
2022-10-26T02:14:46.785Z,100.00
2022-10-26T02:17:52.257Z,100.00
2022-10-26T02:20:29.972Z,100.00
2022-10-26T02:23:05.931Z,100.00
2022-10-26T02:25:42.359Z,100.00
2022-10-26T02:28:19.853Z,100.00
2022-10-26T02:30:54.987Z,100.00
2022-10-26T02:33:28.715Z,100.00
2022-10-26T02:36:03.535Z,100.00
2022-10-26T02:38:36.419Z,100.00
2022-10-26T02:41:09.909Z,100.00
2022-10-26T02:43:48.983Z,100.00
2022-10-26T02:46:23.633Z,100.00
2022-10-26T02:48:56.766Z,100.00
2022-10-26T02:51:45.682Z,100.00
2022-10-26T02:54:36.091Z,100.00
2022-10-26T02:57:18.546Z,100.00
2022-10-26T02:59:50.998Z,100.00
2022-10-26T03:02:23.641Z,100.00
2022-10-26T03:04:56.068Z,100.00
2022-10-26T03:07:30.471Z,100.00
2022-10-26T03:10:03.493Z,100.00
2022-10-26T03:12:37.382Z,100.00
2022-10-26T03:15:11.699Z,100.00
2022-10-26T03:17:45.336Z,100.00
2022-10-26T03:20:18.890Z,100.00
2022-10-26T03:22:51.626Z,100.00
2022-10-26T03:25:27.554Z,100.00
2022-10-26T03:28:02.162Z,100.00
2022-10-26T03:30:34.603Z,100.00
2022-10-26T03:33:07.017Z,100.00
2022-10-26T03:35:40.717Z,100.00
2022-10-26T03:38:15.936Z,100.00
2022-10-26T03:40:49.867Z,100.00
2022-10-26T03:43:22.848Z,100.00
2022-10-26T03:45:55.289Z,100.00
2022-10-26T03:48:28.829Z,100.00
2022-10-26T03:51:01.576Z,100.00
2022-10-26T03:53:35.630Z,100.00
2022-10-26T03:56:09.271Z,100.00
2022-10-26T03:58:43.681Z,100.00
2022-10-26T04:01:16.622Z,100.00
2022-10-26T04:03:50.883Z,100.00
2022-10-26T04:06:24.658Z,100.00
2022-10-26T04:08:59.348Z,100.00
2022-10-26T04:11:31.973Z,100.00
2022-10-26T04:14:04.512Z,100.00
2022-10-26T04:16:37.088Z,100.00
2022-10-26T04:19:11.314Z,100.00
2022-10-26T04:21:44.821Z,100.00
2022-10-26T04:24:17.566Z,100.00
2022-10-26T04:26:50.656Z,100.00
2022-10-26T04:29:24.221Z,100.00
2022-10-26T04:31:56.882Z,100.00
2022-10-26T04:34:29.936Z,100.00
2022-10-26T04:37:02.926Z,100.00
2022-10-26T04:39:36.828Z,100.00
2022-10-26T04:42:09.235Z,100.00
2022-10-26T04:44:43.655Z,100.00
2022-10-26T04:47:16.723Z,100.00
2022-10-26T04:49:49.097Z,100.00
2022-10-26T04:52:21.695Z,100.00
2022-10-26T04:54:54.747Z,100.00
2022-10-26T04:57:27.619Z,100.00
2022-10-26T05:00:00.558Z,100.00
2022-10-26T05:02:34.952Z,100.00
2022-10-26T05:05:09.969Z,100.00
2022-10-26T05:07:41.716Z,100.00
2022-10-26T05:10:15.415Z,100.00
2022-10-26T05:13:01.129Z,100.00
2022-10-26T05:15:34.875Z,100.00
2022-10-26T05:18:09.571Z,100.00
2022-10-26T05:20:42.284Z,100.00
2022-10-26T05:23:16.407Z,100.00
2022-10-26T05:25:50.611Z,100.00
2022-10-26T05:28:23.290Z,100.00
2022-10-26T05:30:56.474Z,100.00
2022-10-26T05:33:29.286Z,100.00
2022-10-26T05:36:02.981Z,100.00
2022-10-26T05:38:35.630Z,100.00
2022-10-26T05:41:08.259Z,100.00
2022-10-26T05:43:41.352Z,100.00
2022-10-26T05:46:13.893Z,100.00
2022-10-26T05:48:47.594Z,100.00
2022-10-26T05:51:20.525Z,100.00
2022-10-26T05:53:56.813Z,100.00
2022-10-26T05:56:37.742Z,100.00
2022-10-26T05:59:29.845Z,100.00
2022-10-26T06:02:35.341Z,100.00
2022-10-26T06:05:10.921Z,100.00
2022-10-26T06:07:44.232Z,100.00
2022-10-26T06:10:19.193Z,100.00
2022-10-26T06:12:52.563Z,100.00
2022-10-26T06:15:26.009Z,100.00
2022-10-26T06:18:12.515Z,100.00
2022-10-26T06:21:26.069Z,100.00
2022-10-26T06:24:34.146Z,100.00
2022-10-26T06:27:30.820Z,100.00
2022-10-26T06:30:12.995Z,100.00
2022-10-26T06:32:50.211Z,100.00
2022-10-26T06:35:33.260Z,100.00
2022-10-26T06:38:11.271Z,100.00
2022-10-26T06:40:46.180Z,100.00
2022-10-26T06:43:26.964Z,100.00
2022-10-26T06:46:22.270Z,100.00
2022-10-26T06:49:32.915Z,100.00
2022-10-26T06:52:19.296Z,100.00
2022-10-26T06:54:56.931Z,100.00
2022-10-26T06:57:38.441Z,100.00
2022-10-26T07:00:23.316Z,100.00
2022-10-26T07:02:55.542Z,100.00
2022-10-26T07:05:29.060Z,100.00
2022-10-26T07:08:03.889Z,100.00
2022-10-26T07:10:38.117Z,100.00
2022-10-26T07:13:12.399Z,100.00
2022-10-26T07:15:46.728Z,100.00
2022-10-26T07:18:19.877Z,100.00
2022-10-26T07:20:52.461Z,100.00
2022-10-26T07:23:26.151Z,100.00
2022-10-26T10:41:48.087Z,87.41
2022-10-26T10:44:29.905Z,87.29
2022-10-26T10:47:07.568Z,87.40
2022-10-26T10:49:43.862Z,88.84
2022-10-26T10:52:31.631Z,91.54
2022-10-26T10:55:20.831Z,91.41
2022-10-26T10:57:58.833Z,92.67
2022-10-26T11:00:33.058Z,94.02
2022-10-26T11:03:43.827Z,96.39
2022-10-26T11:06:18.765Z,98.86
2022-10-26T11:09:06.335Z,98.81
2022-10-26T11:11:55.858Z,99.11
2022-10-26T11:14:36.574Z,93.62
2022-10-26T11:17:30.093Z,86.39
2022-10-26T11:20:30.675Z,87.13
2022-10-26T11:23:19.290Z,85.93
2022-10-26T11:26:00.060Z,81.50
2022-10-26T11:28:52.644Z,76.42
2022-10-26T11:31:31.225Z,73.42
2022-10-26T11:34:15.113Z,70.38
2022-10-26T11:36:52.196Z,68.62
2022-10-26T11:39:41.974Z,68.62
2022-10-26T11:42:36.103Z,69.63
2022-10-26T11:45:30.193Z,67.47
2022-10-26T11:48:25.817Z,70.47
2022-10-26T11:50:59.379Z,71.49
2022-10-26T11:53:41.075Z,72.46
2022-10-26T11:56:21.755Z,75.77
2022-10-26T11:58:55.041Z,78.17
2022-10-26T12:01:32.518Z,79.57
2022-10-26T12:04:04.759Z,81.12
2022-10-26T12:06:37.623Z,81.37
2022-10-26T12:09:16.409Z,81.42
2022-10-26T12:12:24.870Z,82.83
2022-10-26T12:15:09.015Z,83.50
2022-10-26T12:18:08.313Z,83.87
2022-10-26T12:21:19.197Z,83.27
2022-10-26T12:24:03.704Z,84.97
2022-10-26T12:26:58.988Z,85.73
2022-10-26T12:29:38.430Z,86.50
2022-10-26T12:32:39.181Z,87.28
2022-10-26T17:14:40.324Z,100.00
2022-10-26T17:17:13.756Z,100.00
2022-10-26T17:19:51.031Z,100.00
2022-10-26T17:22:26.360Z,100.00
2022-10-26T17:24:59.685Z,100.00
2022-10-26T17:27:33.172Z,100.00
2022-10-26T17:30:09.249Z,100.00
2022-10-26T17:32:57.203Z,100.00
2022-10-26T17:35:29.713Z,100.00
2022-10-26T17:38:03.805Z,100.00
2022-10-26T17:40:44.239Z,100.00
2022-10-26T17:43:24.088Z,100.00
2022-10-26T17:46:12.275Z,100.00
2022-10-26T17:48:56.131Z,100.00
2022-10-26T17:51:31.188Z,100.00
2022-10-26T17:54:03.902Z,100.00
2022-10-26T17:56:36.627Z,100.00
2022-10-26T17:59:12.363Z,100.00
2022-10-26T18:01:45.480Z,100.00
2022-10-26T18:04:18.688Z,100.00
2022-10-26T18:06:52.703Z,100.00
2022-10-26T18:09:25.538Z,100.00
2022-10-26T18:12:00.290Z,100.00
2022-10-26T18:14:34.678Z,100.00
2022-10-26T18:17:07.397Z,100.00
2022-10-26T18:19:39.938Z,100.00
2022-10-26T18:22:12.717Z,100.00
2022-10-26T18:24:45.194Z,100.00
2022-10-26T18:27:17.718Z,100.00
2022-10-26T18:29:50.176Z,100.00
2022-10-26T18:32:24.044Z,100.00
2022-10-26T18:34:57.750Z,100.00
2022-10-26T18:37:30.305Z,100.00
2022-10-26T18:40:04.043Z,100.00
2022-10-26T18:42:40.995Z,100.00
2022-10-26T18:45:14.025Z,100.00
2022-10-26T18:47:47.254Z,100.00
2022-10-26T18:50:19.841Z,100.00
2022-10-26T18:52:52.332Z,100.00
2022-10-26T18:55:25.462Z,100.00
2022-10-26T18:58:03.296Z,100.00
2022-10-26T19:00:41.776Z,100.00
2022-10-26T19:03:16.239Z,100.00
2022-10-26T19:05:48.821Z,100.00
2022-10-26T19:08:24.529Z,100.00
2022-10-26T19:11:03.737Z,100.00
2022-10-26T19:13:39.900Z,100.00
2022-10-26T19:16:43.989Z,100.00
2022-10-26T19:18:58.756Z,100.00
2022-10-26T19:21:35.309Z,100.00
2022-10-26T19:24:10.817Z,100.00
2022-10-26T19:26:46.938Z,100.00
2022-10-26T19:29:22.556Z,100.00
2022-10-26T19:31:57.876Z,100.00
2022-10-26T19:34:33.950Z,100.00
2022-10-26T19:37:08.724Z,100.00
2022-10-26T19:39:44.709Z,100.00
2022-10-26T19:42:21.641Z,100.00
2022-10-26T19:45:21.741Z,100.00
2022-10-26T19:47:55.688Z,100.00
2022-10-26T19:50:29.012Z,100.00
2022-10-26T19:53:03.817Z,100.00
2022-10-26T19:55:37.737Z,100.00
2022-10-26T19:58:10.141Z,100.00
2022-10-26T20:00:43.451Z,100.00
2022-10-26T20:03:17.394Z,100.00
2022-10-26T20:05:56.277Z,100.00
2022-10-26T20:08:24.726Z,100.00
2022-10-26T20:10:58.376Z,100.00
2022-10-26T20:13:30.725Z,100.00
2022-10-26T20:16:03.782Z,100.00
2022-10-26T20:18:39.999Z,100.00
2022-10-26T20:21:15.017Z,100.00
2022-10-26T20:23:47.473Z,100.00
2022-10-26T20:26:21.308Z,100.00
2022-10-26T20:28:53.812Z,100.00
2022-10-26T20:31:27.170Z,100.00
2022-10-26T20:34:01.158Z,100.00
2022-10-26T20:36:35.173Z,100.00
2022-10-26T20:39:08.264Z,100.00
2022-10-26T20:41:46.847Z,100.00
2022-10-26T20:44:24.610Z,100.00
2022-10-26T20:46:59.235Z,100.00
2022-10-26T20:49:32.042Z,100.00
2022-10-26T20:52:21.032Z,100.00
2022-10-26T20:54:54.607Z,100.00
2022-10-26T20:57:30.744Z,100.00
2022-10-26T21:00:09.187Z,100.00
2022-10-26T21:02:41.833Z,100.00
2022-10-26T21:05:18.100Z,100.00
2022-10-26T21:07:51.453Z,100.00
2022-10-26T21:10:25.422Z,100.00
2022-10-26T21:12:59.736Z,100.00
2022-10-26T21:15:32.253Z,100.00
2022-10-26T21:18:05.131Z,100.00
2022-10-26T21:20:37.812Z,100.00
2022-10-26T21:23:10.246Z,100.00
2022-10-26T21:25:43.919Z,100.00
2022-10-26T21:28:16.729Z,100.00
2022-10-26T21:30:49.107Z,100.00
2022-10-26T21:33:24.082Z,100.00
2022-10-26T21:35:56.410Z,100.00
2022-10-26T21:38:29.967Z,100.00
2022-10-26T21:41:19.109Z,100.00
2022-10-26T21:44:03.242Z,100.00
2022-10-26T21:46:36.285Z,100.00
2022-10-26T21:49:08.751Z,100.00
2022-10-26T21:51:43.554Z,100.00
2022-10-26T21:54:17.008Z,100.00
2022-10-26T21:56:50.457Z,100.00
2022-10-26T21:59:23.033Z,100.00
2022-10-26T22:01:55.646Z,100.00
2022-10-26T22:04:28.394Z,100.00
2022-10-26T22:07:01.080Z,100.00
2022-10-26T22:09:40.595Z,100.00
2022-10-26T22:12:08.794Z,100.00
2022-10-26T22:14:41.870Z,100.00
2022-10-26T22:17:14.688Z,100.00
2022-10-26T22:19:49.086Z,100.00
2022-10-26T22:22:22.166Z,100.00
2022-10-26T22:24:55.204Z,100.00
2022-10-26T22:27:28.727Z,100.00
2022-10-26T22:30:01.842Z,100.00
2022-10-26T22:32:34.968Z,100.00
2022-10-26T22:35:24.807Z,100.00
2022-10-26T22:37:43.485Z,100.00
2022-10-26T22:40:15.912Z,100.00
2022-10-26T22:42:49.052Z,100.00
2022-10-26T22:45:22.361Z,100.00
2022-10-26T22:47:55.842Z,100.00
2022-10-26T22:50:29.326Z,100.00
2022-10-26T22:53:01.752Z,100.00
2022-10-26T22:55:34.632Z,100.00
2022-10-26T22:58:07.986Z,100.00
2022-10-26T23:00:40.889Z,100.00
2022-10-26T23:03:14.257Z,100.00
2022-10-26T23:05:50.072Z,100.00
2022-10-26T23:08:23.099Z,100.00
2022-10-26T23:11:17.248Z,100.00
2022-10-26T23:13:57.092Z,100.00
2022-10-26T23:16:31.164Z,100.00
2022-10-26T23:19:04.600Z,100.00
2022-10-26T23:21:37.654Z,100.00
2022-10-26T23:24:12.072Z,100.00
2022-10-26T23:26:44.899Z,100.00
2022-10-26T23:29:18.449Z,100.00
2022-10-26T23:31:50.783Z,100.00
2022-10-26T23:34:24.071Z,100.00
2022-10-26T23:36:57.544Z,100.00
2022-10-26T23:39:29.949Z,100.00
2022-10-26T23:42:04.202Z,100.00
2022-10-26T23:44:36.692Z,100.00
2022-10-26T23:47:09.084Z,100.00
2022-10-26T23:49:44.419Z,100.00
2022-10-26T23:52:17.023Z,100.00
2022-10-26T23:57:23.804Z,100.00
2022-10-26T23:59:56.449Z,100.00
